createdAt,value
2019-04-25T00:02:15.690Z,95909.81
2019-04-25T00:04:42.609Z,95913.08
2019-04-25T00:07:09.556Z,95913.08
2019-04-25T00:09:44.052Z,95914.11
2019-04-25T00:12:10.402Z,95909.72
2019-04-25T00:14:36.426Z,95906.59
2019-04-25T00:17:02.769Z,95907.91
2019-04-25T00:19:28.894Z,95919.83
2019-04-25T00:27:18.653Z,95923.90
2019-04-25T00:29:45.735Z,95927.95
2019-04-25T00:32:12.148Z,95931.84
2019-04-25T00:34:38.301Z,95934.16
2019-04-25T00:37:05.464Z,95931.52
2019-04-25T00:39:32.023Z,95922.17
2019-04-25T00:41:59.407Z,95920.02
2019-04-25T00:44:25.472Z,95927.05
2019-04-25T00:46:56.535Z,95917.29
2019-04-25T00:49:19.769Z,95913.53
2019-04-25T00:51:46.145Z,95907.70
2019-04-25T00:54:12.402Z,95904.06
2019-04-25T00:56:38.645Z,95895.41
2019-04-25T00:59:15.851Z,95876.14
2019-04-25T01:01:53.258Z,95872.08
2019-04-25T01:04:22.055Z,95875.34
2019-04-25T01:06:48.194Z,95878.07
2019-04-25T01:09:16.220Z,95876.65
2019-04-25T01:11:42.531Z,95875.83
2019-04-25T01:14:08.653Z,95871.44
2019-04-25T01:16:34.728Z,95865.97
2019-04-25T01:19:00.892Z,95866.87
2019-04-25T01:21:27.139Z,95863.40
2019-04-25T01:23:54.447Z,95868.69
2019-04-25T01:26:20.807Z,95870.30
2019-04-25T01:28:47.651Z,95872.56
2019-04-25T01:31:15.859Z,95869.92
2019-04-25T01:33:43.318Z,95887.53
2019-04-25T01:39:34.254Z,95893.34
2019-04-25T01:42:19.120Z,95901.20
2019-04-25T01:44:50.256Z,95895.69
2019-04-25T01:47:16.386Z,95886.22
2019-04-25T01:49:43.927Z,95899.45
2019-04-25T01:52:10.472Z,95896.72
2019-04-25T01:54:36.607Z,95888.99
2019-04-25T01:57:04.305Z,95879.12
2019-04-25T01:59:30.726Z,95890.41
2019-04-25T02:01:56.976Z,95892.44
2019-04-25T02:04:23.224Z,95879.21
2019-04-25T02:06:49.346Z,95871.78
2019-04-25T02:09:16.974Z,95878.20
2019-04-25T02:11:45.049Z,95889.61
2019-04-25T02:14:11.198Z,95885.84
2019-04-25T02:16:37.331Z,95892.34
2019-04-25T02:19:04.139Z,95885.85
2019-04-25T02:21:30.421Z,95889.61
2019-04-25T02:23:56.693Z,95881.06
2019-04-25T02:26:24.094Z,95867.22
2019-04-25T02:28:50.350Z,95873.12
2019-04-25T02:31:18.376Z,95866.61
2019-04-25T02:33:44.729Z,95873.72
2019-04-25T02:36:10.908Z,95877.39
2019-04-25T02:38:37.654Z,95873.92
2019-04-25T02:41:08.368Z,95871.20
2019-04-25T02:43:31.832Z,95877.19
2019-04-25T02:46:16.301Z,95876.28
2019-04-25T02:49:01.361Z,95873.72
2019-04-25T02:51:29.121Z,95873.31
2019-04-25T02:53:57.896Z,95874.14
2019-04-25T02:56:31.212Z,95870.17
2019-04-25T02:58:54.268Z,95863.36
2019-04-25T03:01:25.672Z,95868.23
2019-04-25T03:03:49.659Z,95864.97
2019-04-25T03:06:15.806Z,95863.15
2019-04-25T03:08:42.241Z,95853.28
2019-04-25T03:11:09.344Z,95852.78
2019-04-25T03:13:35.852Z,95835.27
2019-04-25T03:16:03.365Z,95846.96
2019-04-25T03:18:31.993Z,95843.94
2019-04-25T03:21:01.298Z,95853.60
2019-04-25T03:23:34.995Z,95845.47
2019-04-25T03:26:01.021Z,95861.00
2019-04-25T03:28:27.969Z,95866.58
2019-04-25T03:30:54.938Z,95874.84
2019-04-25T03:33:22.109Z,95869.64
2019-04-25T03:35:48.163Z,95874.13
2019-04-25T03:38:14.533Z,95875.45
2019-04-25T03:40:40.740Z,95874.13
2019-04-25T03:43:07.089Z,95874.13
2019-04-25T03:45:33.339Z,95880.42
2019-04-25T03:47:59.391Z,95870.46
2019-04-25T03:50:25.521Z,95868.94
2019-04-25T03:52:51.643Z,95865.67
2019-04-25T03:55:17.770Z,95867.81
2019-04-25T03:57:44.327Z,95868.64
2019-04-25T04:00:11.107Z,95876.45
2019-04-25T04:02:37.236Z,95878.59
2019-04-25T04:05:06.885Z,95888.56
2019-04-25T04:07:33.692Z,95889.88
2019-04-25T04:10:00.045Z,95892.03
2019-04-25T04:12:26.124Z,95884.01
2019-04-25T04:14:53.627Z,95880.13
2019-04-25T04:17:24.876Z,95891.33
2019-04-25T04:20:01.725Z,95893.67
2019-04-25T04:22:34.051Z,95895.70
2019-04-25T04:25:01.655Z,95890.20
2019-04-25T04:27:27.878Z,95898.16
2019-04-25T04:29:54.343Z,95900.80
2019-04-25T04:32:20.669Z,95896.61
2019-04-25T04:34:46.732Z,95901.39
2019-04-25T04:37:14.627Z,95895.45
2019-04-25T04:39:40.779Z,95896.88
2019-04-25T04:42:07.693Z,95902.55
2019-04-25T04:44:34.465Z,95907.94
2019-04-25T04:47:00.511Z,95911.68
2019-04-25T04:49:26.654Z,95910.69
2019-04-25T04:51:54.145Z,95909.94
2019-04-25T04:54:20.341Z,95912.06
2019-04-25T04:56:46.399Z,95909.99
2019-04-25T04:59:14.322Z,95917.73
2019-04-25T05:01:58.756Z,95910.13
2019-04-25T05:07:41.341Z,95916.14
2019-04-25T05:10:07.995Z,95912.00
2019-04-25T05:12:34.134Z,95909.47
2019-04-25T05:15:00.294Z,95924.56
2019-04-25T05:17:26.513Z,95915.44
2019-04-25T05:19:53.304Z,95916.92
2019-04-25T05:22:20.367Z,95924.05
2019-04-25T05:24:46.597Z,95917.19
2019-04-25T05:27:15.107Z,95920.16
2019-04-25T05:29:40.798Z,95916.63
2019-04-25T05:32:06.823Z,95913.55
2019-04-25T05:34:34.469Z,95911.85
2019-04-25T05:37:00.679Z,95909.64
2019-04-25T05:39:26.847Z,95917.70
2019-04-25T05:41:57.373Z,95918.81
2019-04-25T05:44:26.374Z,95920.94
2019-04-25T05:46:51.668Z,95918.42
2019-04-25T05:49:19.752Z,95917.27
2019-04-25T05:51:46.994Z,95919.62
2019-04-25T05:54:14.106Z,95928.70
2019-04-25T05:56:43.823Z,95933.94
2019-04-25T05:59:10.144Z,95931.10
2019-04-25T06:01:36.344Z,95928.72
2019-04-25T06:04:03.672Z,95924.44
2019-04-25T06:06:30.767Z,95911.38
2019-04-25T06:08:58.818Z,95913.89
2019-04-25T06:11:33.676Z,95914.84
2019-04-25T06:14:02.978Z,95916.81
2019-04-25T06:16:33.222Z,95917.13
2019-04-25T06:19:14.176Z,95916.20
2019-04-25T06:21:38.183Z,95914.02
2019-04-25T06:24:15.512Z,95918.22
2019-04-25T06:29:31.353Z,95919.30
2019-04-25T06:32:05.706Z,95913.33
2019-04-25T06:34:28.391Z,95916.63
2019-04-25T06:36:53.714Z,95907.92
2019-04-25T06:39:20.411Z,95915.92
2019-04-25T06:41:46.570Z,95913.84
2019-04-25T06:44:14.605Z,95912.58
2019-04-25T06:46:51.683Z,95907.91
2019-04-25T06:51:58.248Z,95915.48
2019-04-25T06:54:25.785Z,95914.40
2019-04-25T06:56:53.530Z,95923.05
2019-04-25T06:59:19.848Z,95917.20
2019-04-25T07:01:46.623Z,95918.58
2019-04-25T07:04:14.055Z,95912.24
2019-04-25T07:06:40.521Z,95897.91
2019-04-25T07:09:08.450Z,95906.28
2019-04-25T07:11:35.774Z,95916.47
2019-04-25T07:14:02.186Z,95905.04
2019-04-25T07:16:29.433Z,95921.45
2019-04-25T07:18:55.720Z,95911.30
2019-04-25T07:21:24.012Z,95909.63
2019-04-25T07:23:50.143Z,95902.80
2019-04-25T07:26:28.212Z,95907.91
2019-04-25T07:29:00.617Z,95912.48
2019-04-25T07:31:44.297Z,95911.78
2019-04-25T07:34:15.316Z,95894.31
2019-04-25T07:36:41.631Z,95900.99
2019-04-25T07:39:10.575Z,95898.25
2019-04-25T07:41:44.049Z,95893.56
2019-04-25T07:44:10.503Z,95893.83
2019-04-25T07:46:39.918Z,95897.08
2019-04-25T07:49:06.538Z,95896.34
2019-04-25T07:51:34.308Z,95905.75
2019-04-25T07:54:00.855Z,95896.66
2019-04-25T07:56:27.789Z,95901.81
2019-04-25T07:58:54.847Z,95905.33
2019-04-25T08:01:21.237Z,95897.44
2019-04-25T08:03:47.493Z,95904.22
2019-04-25T08:06:13.931Z,95897.09
2019-04-25T08:08:40.294Z,95901.43
2019-04-25T08:11:07.816Z,95901.59
2019-04-25T08:13:36.340Z,95903.87
2019-04-25T08:16:04.601Z,95912.14
2019-04-25T08:18:30.856Z,95907.88
2019-04-25T08:20:57.287Z,95908.67
2019-04-25T08:23:24.003Z,95910.55
2019-04-25T08:25:50.237Z,95923.11
2019-04-25T08:28:16.356Z,95919.94
2019-04-25T08:30:43.663Z,95925.36
2019-04-25T08:33:10.018Z,95921.02
2019-04-25T08:35:36.541Z,95918.94
2019-04-25T08:38:03.397Z,95925.98
2019-04-25T08:40:31.651Z,95914.55
2019-04-25T08:42:58.796Z,95911.37
2019-04-25T08:45:25.809Z,95912.05
2019-04-25T08:47:53.664Z,95920.71
2019-04-25T08:50:28.983Z,95915.12
2019-04-25T08:52:50.189Z,95914.92
2019-04-25T08:55:36.136Z,95904.35
2019-04-25T08:58:05.068Z,95912.45
2019-04-25T09:00:35.547Z,95905.91
2019-04-25T09:03:03.886Z,95909.47
2019-04-25T09:05:37.408Z,95909.81
2019-04-25T09:08:04.249Z,95912.31
2019-04-25T09:10:30.451Z,95917.84
2019-04-25T09:12:56.551Z,95911.74
2019-04-25T09:15:24.130Z,95910.75
2019-04-25T09:17:50.580Z,95918.31
2019-04-25T09:20:17.681Z,95916.78
2019-04-25T09:22:44.594Z,95916.81
2019-04-25T09:25:13.656Z,95909.95
2019-04-25T09:27:40.920Z,95908.11
2019-04-25T09:30:08.774Z,95907.87
2019-04-25T09:32:35.664Z,95910.59
2019-04-25T09:35:03.824Z,95900.75
2019-04-25T09:37:30.064Z,95907.23
2019-04-25T09:39:58.129Z,95903.73
2019-04-25T09:42:24.391Z,95918.00
2019-04-25T09:45:09.019Z,95898.41
2019-04-25T09:47:37.141Z,95889.53
2019-04-25T09:50:06.258Z,95898.70
2019-04-25T09:52:33.948Z,95890.11
2019-04-25T09:55:04.757Z,95890.95
2019-04-25T09:57:43.440Z,95894.70
2019-04-25T10:00:15.368Z,95890.98
2019-04-25T10:02:42.283Z,95892.08
2019-04-25T10:05:08.856Z,95893.17
2019-04-25T10:07:35.163Z,95904.73
2019-04-25T10:10:01.573Z,95894.80
2019-04-25T10:12:27.845Z,95889.16
2019-04-25T10:15:06.932Z,95891.06
2019-04-25T10:17:33.789Z,95895.65
2019-04-25T10:20:00.190Z,95896.16
2019-04-25T10:22:27.690Z,95888.93
2019-04-25T10:25:00.368Z,95892.98
2019-04-25T10:27:22.141Z,95897.30
2019-04-25T10:29:53.661Z,95892.45
2019-04-25T10:32:18.573Z,95898.90
2019-04-25T10:34:46.096Z,95892.72
2019-04-25T10:37:13.869Z,95893.27
2019-04-25T10:39:40.176Z,95894.06
2019-04-25T10:42:06.408Z,95901.88
2019-04-25T10:44:33.886Z,95896.00
2019-04-25T10:47:00.426Z,95898.98
2019-04-25T10:49:26.675Z,95890.13
2019-04-25T10:51:52.825Z,95892.26
2019-04-25T10:54:19.063Z,95891.47
2019-04-25T10:56:47.076Z,95894.42
2019-04-25T10:59:14.437Z,95898.72
2019-04-25T11:01:41.240Z,95901.95
2019-04-25T11:04:09.418Z,95889.05
2019-04-25T11:06:35.735Z,95894.16
2019-04-25T11:09:03.481Z,95902.48
2019-04-25T11:11:34.131Z,95901.70
2019-04-25T11:14:00.436Z,95890.37
2019-04-25T11:16:26.742Z,95891.44
2019-04-25T11:18:54.704Z,95883.91
2019-04-25T11:21:21.161Z,95886.33
2019-04-25T11:23:48.851Z,95890.08
2019-04-25T11:26:15.514Z,95885.52
2019-04-25T11:28:45.244Z,95892.53
2019-04-25T11:31:13.978Z,95885.80
2019-04-25T11:33:40.571Z,95901.13
2019-04-25T11:36:06.858Z,95884.44
2019-04-25T11:38:34.949Z,95899.81
2019-04-25T11:41:11.851Z,95876.92
2019-04-25T11:43:38.396Z,95881.46
2019-04-25T11:46:04.971Z,95872.56
2019-04-25T11:48:31.302Z,95869.59
2019-04-25T11:50:57.545Z,95878.22
2019-04-25T11:53:25.019Z,95877.91
2019-04-25T11:55:52.038Z,95866.62
2019-04-25T11:58:19.715Z,95878.70
2019-04-25T12:00:47.478Z,95873.03
2019-04-25T12:03:13.693Z,95860.89
2019-04-25T12:05:39.817Z,95874.08
2019-04-25T12:08:06.263Z,95855.48
2019-04-25T12:10:34.694Z,95860.87
2019-04-25T12:13:01.171Z,95867.02
2019-04-25T12:15:28.133Z,95864.58
2019-04-25T12:17:54.763Z,95868.34
2019-04-25T12:20:22.493Z,95876.66
2019-04-25T12:22:48.641Z,95873.12
2019-04-25T12:25:15.037Z,95865.83
2019-04-25T12:27:41.521Z,95866.58
2019-04-25T12:30:08.053Z,95872.44
2019-04-25T12:32:35.232Z,95865.13
2019-04-25T12:35:04.113Z,95850.55
2019-04-25T12:37:30.902Z,95867.29
2019-04-25T12:39:57.172Z,95869.42
2019-04-25T12:42:24.200Z,95865.84
2019-04-25T12:44:56.077Z,95877.36
2019-04-25T12:47:24.294Z,95868.95
2019-04-25T12:49:50.698Z,95873.56
2019-04-25T12:52:17.026Z,95870.94
2019-04-25T12:54:44.076Z,95865.80
2019-04-25T12:57:12.194Z,95872.25
2019-04-25T12:59:38.460Z,95863.83
2019-04-25T13:02:04.733Z,95867.02
2019-04-25T13:04:31.012Z,95850.02
2019-04-25T13:06:57.850Z,95852.13
2019-04-25T13:09:24.241Z,95849.09
2019-04-25T13:11:50.525Z,95839.55
2019-04-25T13:14:17.557Z,95844.41
2019-04-25T13:16:44.372Z,95844.46
2019-04-25T13:19:20.281Z,95846.58
2019-04-25T13:21:39.938Z,95849.71
2019-04-25T13:24:06.195Z,95846.66
2019-04-25T13:26:34.283Z,95849.25
2019-04-25T13:29:04.076Z,95843.27
2019-04-25T13:31:48.725Z,95831.89
2019-04-25T13:34:19.380Z,95826.48
2019-04-25T13:36:45.633Z,95830.94
2019-04-25T13:39:15.068Z,95830.88
2019-04-25T13:41:43.042Z,95834.92
2019-04-25T13:44:10.071Z,95827.83
2019-04-25T13:46:36.801Z,95841.63
2019-04-25T13:49:04.239Z,95842.09
2019-04-25T13:51:33.360Z,95835.56
2019-04-25T13:53:59.613Z,95841.22
2019-04-25T13:56:27.431Z,95843.27
2019-04-25T13:58:55.888Z,95839.23
2019-04-25T14:01:23.023Z,95839.50
2019-04-25T14:03:50.286Z,95836.76
2019-04-25T14:06:16.531Z,95835.05
2019-04-25T14:08:43.488Z,95827.17
2019-04-25T14:11:10.066Z,95820.95
2019-04-25T14:13:36.331Z,95837.15
2019-04-25T14:16:04.438Z,95838.80
2019-04-25T14:18:41.460Z,95827.46
2019-04-25T14:21:20.809Z,95823.12
2019-04-25T14:23:48.081Z,95828.89
2019-04-25T14:26:16.108Z,95823.23
2019-04-25T14:28:44.275Z,95826.70
2019-04-25T14:31:13.148Z,95823.66
2019-04-25T14:33:40.580Z,95823.66
2019-04-25T14:36:07.825Z,95816.79
2019-04-25T14:38:35.390Z,95824.55
2019-04-25T14:41:01.931Z,95822.13
2019-04-25T14:43:28.794Z,95819.20
2019-04-25T14:45:56.406Z,95819.72
2019-04-25T14:48:23.593Z,95812.91
2019-04-25T14:50:49.841Z,95809.52
2019-04-25T14:53:16.020Z,95811.14
2019-04-25T14:55:55.885Z,95811.63
2019-04-25T14:58:24.003Z,95814.08
2019-04-25T15:00:51.275Z,95816.55
2019-04-25T15:03:17.532Z,95803.59
2019-04-25T15:05:43.763Z,95804.70
2019-04-25T15:08:10.177Z,95810.05
2019-04-25T15:10:36.383Z,95806.63
2019-04-25T15:13:03.932Z,95807.69
2019-04-25T15:15:30.199Z,95804.17
2019-04-25T15:17:56.459Z,95808.81
2019-04-25T15:20:22.738Z,95811.56
2019-04-25T15:22:48.995Z,95807.23
2019-04-25T15:25:15.286Z,95801.30
2019-04-25T15:27:41.604Z,95798.93
2019-04-25T15:30:09.882Z,95795.76
2019-04-25T15:32:37.436Z,95796.55
2019-04-25T15:35:07.046Z,95796.53
2019-04-25T15:37:40.991Z,95792.17
2019-04-25T15:42:52.954Z,95788.33
2019-04-25T15:45:26.977Z,95795.36
2019-04-25T15:47:53.682Z,95788.33
2019-04-25T15:50:19.911Z,95785.14
2019-04-25T15:52:46.189Z,95786.21
2019-04-25T15:55:12.449Z,95781.64
2019-04-25T15:57:38.718Z,95792.19
2019-04-25T16:00:07.436Z,95780.87
2019-04-25T16:02:37.559Z,95778.73
2019-04-25T16:05:07.215Z,95778.99
2019-04-25T16:07:33.814Z,95782.26
2019-04-25T16:10:00.259Z,95769.30
2019-04-25T16:12:27.601Z,95776.30
2019-04-25T16:14:53.970Z,95781.69
2019-04-25T16:17:20.235Z,95778.75
2019-04-25T16:19:46.534Z,95777.20
2019-04-25T16:22:12.902Z,95773.92
2019-04-25T16:24:39.175Z,95783.09
2019-04-25T16:27:05.906Z,95775.33
2019-04-25T16:29:33.248Z,95781.27
2019-04-25T16:32:00.867Z,95772.97
2019-04-25T16:34:27.133Z,95783.20
2019-04-25T16:36:54.680Z,95767.06
2019-04-25T16:39:27.127Z,95772.22
2019-04-25T16:41:53.448Z,95777.11
2019-04-25T16:44:21.674Z,95768.53
2019-04-25T16:46:48.081Z,95775.58
2019-04-25T16:49:14.379Z,95774.02
2019-04-25T16:51:40.750Z,95771.58
2019-04-25T16:54:06.996Z,95773.50
2019-04-25T16:56:33.231Z,95768.69
2019-04-25T16:58:59.548Z,95773.88
2019-04-25T17:01:25.805Z,95767.95
2019-04-25T17:03:52.061Z,95773.39
2019-04-25T17:06:18.320Z,95775.36
2019-04-25T17:08:44.544Z,95770.58
2019-04-25T17:11:11.756Z,95775.48
2019-04-25T17:13:39.810Z,95784.91
2019-04-25T17:16:07.904Z,95780.38
2019-04-25T17:18:36.282Z,95772.61
2019-04-25T17:21:04.305Z,95777.22
2019-04-25T17:23:31.177Z,95781.08
2019-04-25T17:25:57.590Z,95775.47
2019-04-25T17:28:23.941Z,95772.78
2019-04-25T17:30:52.085Z,95785.23
2019-04-25T17:33:36.494Z,95784.47
2019-04-25T17:36:20.950Z,95786.66
2019-04-25T17:38:48.998Z,95781.03
2019-04-25T17:41:15.281Z,95783.21
2019-04-25T17:43:41.860Z,95782.41
2019-04-25T17:46:11.020Z,95785.39
2019-04-25T17:48:38.264Z,95777.89
2019-04-25T17:51:04.580Z,95780.61
2019-04-25T17:53:30.818Z,95786.55
2019-04-25T17:55:57.062Z,95792.75
2019-04-25T17:58:25.109Z,95793.58
2019-04-25T18:00:51.532Z,95786.06
2019-04-25T18:03:18.230Z,95792.74
2019-04-25T18:05:44.354Z,95795.70
2019-04-25T18:08:10.756Z,95787.36
2019-04-25T18:10:37.719Z,95785.99
2019-04-25T18:13:05.038Z,95787.56
2019-04-25T18:15:33.059Z,95793.17
2019-04-25T18:18:01.418Z,95790.95
2019-04-25T18:20:29.486Z,95797.59
2019-04-25T18:23:00.374Z,95799.44
2019-04-25T18:28:20.258Z,95801.99
2019-04-25T18:30:47.474Z,95804.59
2019-04-25T18:33:18.204Z,95799.66
2019-04-25T18:35:45.948Z,95803.16
2019-04-25T18:38:20.082Z,95798.52
2019-04-25T18:40:50.873Z,95807.75
2019-04-25T18:43:22.718Z,95797.73
2019-04-25T18:45:50.799Z,95801.64
2019-04-25T18:48:16.948Z,95805.00
2019-04-25T18:50:43.205Z,95806.25
2019-04-25T18:53:11.708Z,95803.99
2019-04-25T18:55:40.898Z,95806.83
2019-04-25T18:58:14.739Z,95807.25
2019-04-25T19:00:45.839Z,95816.51
2019-04-25T19:03:26.200Z,95804.13
2019-04-25T19:06:00.304Z,95811.62
2019-04-25T19:08:26.587Z,95809.91
2019-04-25T19:10:53.107Z,95803.06
2019-04-25T19:13:19.443Z,95804.85
2019-04-25T19:15:45.794Z,95812.25
2019-04-25T19:18:12.051Z,95812.95
2019-04-25T19:20:38.979Z,95808.04
2019-04-25T19:23:06.475Z,95817.33
2019-04-25T19:28:07.793Z,95809.09
2019-04-25T19:30:34.062Z,95809.73
2019-04-25T19:33:00.308Z,95812.52
2019-04-25T19:35:28.530Z,95803.84
2019-04-25T19:38:54.455Z,95806.16
2019-04-25T19:41:21.588Z,95802.05
2019-04-25T19:43:49.674Z,95809.36
2019-04-25T19:46:15.913Z,95806.58
2019-04-25T19:48:42.914Z,95809.95
2019-04-25T19:51:09.233Z,95807.20
2019-04-25T19:53:35.463Z,95807.66
2019-04-25T19:56:01.625Z,95812.95
2019-04-25T19:58:27.745Z,95808.28
2019-04-25T20:00:54.638Z,95808.68
2019-04-25T20:03:49.245Z,95809.92
2019-04-25T20:06:14.919Z,95810.36
2019-04-25T20:08:43.931Z,95818.94
2019-04-25T20:11:19.163Z,95811.64
2019-04-25T20:13:45.478Z,95809.94
2019-04-25T20:16:12.449Z,95811.45
2019-04-25T20:18:38.757Z,95814.12
2019-04-25T20:21:04.996Z,95817.84
2019-04-25T20:23:50.873Z,95816.95
2019-04-25T20:26:17.567Z,95820.07
2019-04-25T20:28:44.880Z,95806.84
2019-04-25T20:31:11.206Z,95810.09
2019-04-25T20:33:37.393Z,95813.98
2019-04-25T20:36:17.523Z,95810.02
2019-04-25T20:38:42.459Z,95811.72
2019-04-25T20:41:08.681Z,95812.05
2019-04-25T20:43:34.970Z,95816.41
2019-04-25T20:46:01.378Z,95813.36
2019-04-25T20:48:27.529Z,95816.34
2019-04-25T20:50:54.529Z,95812.83
2019-04-25T20:53:22.714Z,95812.20
2019-04-25T20:55:48.819Z,95807.27
2019-04-25T20:58:15.003Z,95809.07
2019-04-25T21:00:44.520Z,95811.54
2019-04-25T21:03:12.579Z,95812.75
2019-04-25T21:05:38.953Z,95818.19
2019-04-25T21:08:08.209Z,95807.38
2019-04-25T21:10:34.296Z,95816.45
2019-04-25T21:13:01.940Z,95810.06
2019-04-25T21:15:32.838Z,95811.63
2019-04-25T21:18:03.583Z,95809.71
2019-04-25T21:20:29.724Z,95811.50
2019-04-25T21:22:57.886Z,95814.91
2019-04-25T21:25:24.092Z,95811.38
2019-04-25T21:27:51.221Z,95809.10
2019-04-25T21:30:19.021Z,95805.80
2019-04-25T21:32:53.319Z,95809.16
2019-04-25T21:35:20.414Z,95804.48
2019-04-25T21:37:46.605Z,95809.17
2019-04-25T21:40:21.219Z,95807.63
2019-04-25T21:42:49.698Z,95808.31
2019-04-25T21:45:19.355Z,95807.95
2019-04-25T22:40:13.629Z,95789.45
2019-04-25T22:42:39.952Z,95796.13
2019-04-25T22:45:06.242Z,95785.73
2019-04-25T22:47:32.546Z,95794.86
2019-04-25T22:49:58.922Z,95792.56
2019-04-25T22:52:25.526Z,95788.27
2019-04-25T22:54:51.779Z,95786.14
2019-04-25T22:57:18.452Z,95789.75
2019-04-25T22:59:45.017Z,95795.48
2019-04-25T23:07:56.650Z,95792.14
2019-04-25T23:10:23.113Z,95792.48
2019-04-25T23:12:49.370Z,95783.86
2019-04-25T23:15:15.641Z,95781.70
2019-04-25T23:17:41.835Z,95780.28
2019-04-25T23:20:08.400Z,95775.03
2019-04-25T23:22:34.636Z,95782.86
2019-04-25T23:25:03.428Z,95781.95
2019-04-25T23:27:49.502Z,95778.63
2019-04-25T23:30:17.878Z,95775.30
2019-04-25T23:32:44.095Z,95770.72
2019-04-25T23:35:23.481Z,95772.55
2019-04-25T23:37:38.507Z,95780.94
2019-04-25T23:40:05.158Z,95768.63
2019-04-25T23:42:32.556Z,95771.99
2019-04-25T23:44:59.075Z,95765.73
2019-04-25T23:47:25.365Z,95763.80
2019-04-25T23:49:51.623Z,95766.89
2019-04-25T23:52:18.099Z,95759.88
2019-04-25T23:54:44.342Z,95761.92
2019-04-25T23:57:11.237Z,95748.79
2019-04-25T23:59:37.563Z,95749.94
